createdAt,value
2022-08-22T00:02:30.567Z,14.15
2022-08-22T00:02:49.713Z,15.15
2022-08-22T00:02:53.912Z,15.64
2022-08-22T00:02:57.905Z,14.26
2022-08-22T00:03:04.028Z,16.93
2022-08-22T00:05:10.422Z,14.14
2022-08-22T00:07:49.114Z,14.10
2022-08-22T00:10:25.864Z,14.05
2022-08-22T00:13:02.297Z,13.91
2022-08-22T00:15:43.471Z,13.89
2022-08-22T00:18:18.658Z,13.86
2022-08-22T00:20:54.113Z,13.88
2022-08-22T00:23:29.036Z,13.90
2022-08-22T00:26:03.131Z,13.96
2022-08-22T00:28:36.971Z,13.90
2022-08-22T00:31:16.802Z,13.87
2022-08-22T00:33:49.716Z,13.81
2022-08-22T00:36:25.394Z,13.82
2022-08-22T00:39:04.419Z,13.70
2022-08-22T00:41:49.460Z,13.72
2022-08-22T00:44:33.627Z,13.75
2022-08-22T00:47:21.226Z,13.86
2022-08-22T00:50:27.842Z,13.95
2022-08-22T00:53:25.821Z,13.95
2022-08-22T00:56:06.866Z,13.74
2022-08-22T00:58:52.913Z,13.63
2022-08-22T01:01:29.577Z,13.76
2022-08-22T01:04:33.326Z,13.82
2022-08-22T01:07:15.129Z,13.73
2022-08-22T01:09:51.261Z,13.77
2022-08-22T01:12:34.274Z,13.68
2022-08-22T01:15:08.205Z,13.68
2022-08-22T01:18:00.467Z,13.62
2022-08-22T01:21:07.196Z,13.68
2022-08-22T01:24:07.932Z,13.69
2022-08-22T01:27:21.691Z,14.11
2022-08-22T01:30:32.322Z,14.03
2022-08-22T01:33:44.147Z,14.07
2022-08-22T01:36:30.866Z,14.18
2022-08-22T01:39:15.006Z,14.14
2022-08-22T01:42:05.013Z,14.22
2022-08-22T01:45:03.777Z,14.21
2022-08-22T01:47:38.519Z,14.11
2022-08-22T01:50:13.995Z,14.09
2022-08-22T01:52:48.426Z,13.89
2022-08-22T01:55:27.512Z,13.67
2022-08-22T01:58:00.253Z,13.82
2022-08-22T02:00:52.317Z,13.85
2022-08-22T02:03:29.291Z,13.69
2022-08-22T02:06:04.177Z,13.75
2022-08-22T02:08:41.451Z,13.68
2022-08-22T02:11:11.819Z,13.64
2022-08-22T02:13:55.364Z,13.62
2022-08-22T02:16:32.958Z,13.64
2022-08-22T02:19:12.266Z,13.69
2022-08-22T02:21:47.199Z,13.66
2022-08-22T02:24:28.705Z,13.58
2022-08-22T02:27:09.309Z,14.08
2022-08-22T02:29:45.840Z,13.86
2022-08-22T02:32:22.328Z,13.95
2022-08-22T02:34:58.765Z,14.02
2022-08-22T02:37:36.568Z,13.99
2022-08-22T02:40:14.748Z,13.85
2022-08-22T02:42:48.726Z,13.75
2022-08-22T02:45:25.752Z,13.68
2022-08-22T02:48:00.799Z,13.54
2022-08-22T02:50:39.190Z,13.49
2022-08-22T02:53:14.489Z,13.52
2022-08-22T02:56:04.212Z,13.47
2022-08-22T02:58:44.034Z,13.40
2022-08-22T03:01:40.788Z,13.72
2022-08-22T03:04:45.253Z,13.58
2022-08-22T03:07:25.540Z,13.69
2022-08-22T03:10:02.553Z,13.77
2022-08-22T03:12:39.953Z,13.60
2022-08-22T03:15:14.379Z,13.67
2022-08-22T03:17:51.663Z,13.61
2022-08-22T03:20:37.238Z,13.54
2022-08-22T03:23:14.593Z,13.56
2022-08-22T03:25:48.218Z,13.51
2022-08-22T03:28:23.314Z,13.51
2022-08-22T03:31:01.093Z,13.48
2022-08-22T03:33:31.259Z,13.48
2022-08-22T03:36:06.499Z,13.46
2022-08-22T03:39:08.323Z,13.42
2022-08-22T03:42:18.761Z,13.42
2022-08-22T03:45:10.642Z,13.27
2022-08-22T03:48:11.358Z,13.23
2022-08-22T03:51:04.927Z,13.34
2022-08-22T03:53:52.823Z,13.25
2022-08-22T03:56:41.792Z,13.32
2022-08-22T03:59:32.145Z,13.13
2022-08-22T04:02:42.507Z,13.27
2022-08-22T04:05:49.175Z,13.31
2022-08-22T04:09:01.216Z,13.24
2022-08-22T04:12:02.710Z,13.12
2022-08-22T04:14:49.839Z,13.08
2022-08-22T04:17:43.648Z,13.24
2022-08-22T04:20:53.896Z,13.02
2022-08-22T04:24:00.945Z,13.24
2022-08-22T04:26:36.478Z,13.32
2022-08-22T04:29:09.757Z,13.41
2022-08-22T04:31:49.822Z,13.45
2022-08-22T04:34:25.571Z,13.33
2022-08-22T04:37:03.768Z,13.31
2022-08-22T04:39:39.733Z,13.41
2022-08-22T04:42:31.613Z,13.63
2022-08-22T04:45:06.786Z,13.59
2022-08-22T04:47:38.597Z,13.42
2022-08-22T04:50:15.062Z,13.49
2022-08-22T04:52:57.566Z,13.61
2022-08-22T04:55:34.511Z,13.63
2022-08-22T04:58:13.002Z,13.78
2022-08-22T05:00:45.822Z,14.15
2022-08-22T05:03:20.661Z,14.09
2022-08-22T05:05:53.012Z,14.44
2022-08-22T05:08:26.882Z,14.10
2022-08-22T05:10:55.806Z,14.21
2022-08-22T05:13:28.156Z,14.36
2022-08-22T05:16:03.075Z,14.38
2022-08-22T05:18:37.360Z,14.18
2022-08-22T05:21:11.244Z,14.54
2022-08-22T05:23:45.166Z,14.55
2022-08-22T05:26:15.973Z,14.46
2022-08-22T05:28:52.539Z,14.67
2022-08-22T05:31:26.324Z,14.78
2022-08-22T05:33:59.375Z,14.86
2022-08-22T05:36:33.459Z,14.81
2022-08-22T05:39:05.885Z,14.91
2022-08-22T05:41:37.813Z,14.80
2022-08-22T05:44:14.161Z,15.06
2022-08-22T05:46:44.460Z,15.02
2022-08-22T05:49:19.966Z,15.00
2022-08-22T05:51:59.232Z,15.25
2022-08-22T05:54:34.417Z,15.45
2022-08-22T05:57:10.975Z,15.45
2022-08-22T05:59:43.156Z,15.40
2022-08-22T06:02:19.036Z,15.42
2022-08-22T06:04:51.877Z,15.66
2022-08-22T06:07:25.972Z,15.81
2022-08-22T06:10:20.667Z,15.92
2022-08-22T06:12:57.472Z,16.06
2022-08-22T06:15:34.151Z,15.96
2022-08-22T06:18:06.326Z,16.08
2022-08-22T06:20:39.241Z,16.23
2022-08-22T06:23:13.452Z,16.33
2022-08-22T06:25:46.877Z,16.58
2022-08-22T06:28:20.310Z,16.58
2022-08-22T06:30:51.384Z,16.76
2022-08-22T06:33:25.474Z,16.91
2022-08-22T06:36:16.366Z,17.11
2022-08-22T06:39:01.758Z,16.94
2022-08-22T06:41:34.114Z,17.18
2022-08-22T06:44:06.360Z,17.25
2022-08-22T06:46:38.162Z,17.41
2022-08-22T06:49:09.210Z,17.42
2022-08-22T06:51:39.800Z,17.65
2022-08-22T06:54:16.583Z,17.56
2022-08-22T06:56:47.800Z,17.85
2022-08-22T06:59:18.840Z,17.84
2022-08-22T07:01:57.967Z,17.83
2022-08-22T07:04:27.677Z,17.86
2022-08-22T07:06:58.351Z,17.79
2022-08-22T07:09:32.100Z,17.72
2022-08-22T07:12:03.981Z,18.05
2022-08-22T07:14:39.506Z,17.88
2022-08-22T07:17:09.763Z,18.27
2022-08-22T07:19:41.475Z,18.49
2022-08-22T07:22:15.600Z,18.39
2022-08-22T07:24:48.712Z,18.67
2022-08-22T07:27:32.237Z,18.54
2022-08-22T07:30:09.908Z,18.73
2022-08-22T07:32:46.842Z,18.87
2022-08-22T07:35:19.038Z,19.00
2022-08-22T07:37:55.504Z,18.96
2022-08-22T07:40:31.958Z,19.06
2022-08-22T07:43:09.374Z,18.77
2022-08-22T07:45:44.409Z,19.00
2022-08-22T07:48:25.893Z,19.12
2022-08-22T07:51:02.118Z,19.08
2022-08-22T07:53:37.376Z,19.06
2022-08-22T07:56:10.717Z,19.14
2022-08-22T07:58:41.983Z,19.46
2022-08-22T08:01:16.027Z,19.47
2022-08-22T08:03:50.578Z,19.63
2022-08-22T08:06:18.881Z,19.94
2022-08-22T08:08:47.324Z,19.89
2022-08-22T08:11:19.305Z,19.70
2022-08-22T08:13:52.159Z,19.94
2022-08-22T08:16:24.623Z,20.11
2022-08-22T08:18:56.695Z,20.37
2022-08-22T08:21:30.728Z,19.95
2022-08-22T08:24:01.919Z,20.22
2022-08-22T08:26:35.372Z,20.49
2022-08-22T08:29:04.185Z,20.36
2022-08-22T08:31:38.009Z,20.39
2022-08-22T08:34:16.024Z,20.61
2022-08-22T08:36:51.716Z,20.65
2022-08-22T08:39:26.240Z,20.71
2022-08-22T08:42:54.698Z,20.81
2022-08-22T08:45:38.323Z,20.75
2022-08-22T08:48:24.234Z,20.95
2022-08-22T08:51:06.777Z,20.93
2022-08-22T08:53:57.320Z,21.13
2022-08-22T08:56:35.888Z,20.99
2022-08-22T09:01:59.541Z,21.23
2022-08-22T09:04:57.005Z,21.31
2022-08-22T09:07:43.453Z,21.33
2022-08-22T09:10:45.142Z,21.33
2022-08-22T09:13:40.746Z,21.34
2022-08-22T09:16:24.927Z,21.17
2022-08-22T09:19:19.981Z,21.23
2022-08-22T09:22:14.609Z,21.47
2022-08-22T09:25:24.142Z,21.52
2022-08-22T09:27:59.618Z,21.89
2022-08-22T09:30:45.949Z,21.70
2022-08-22T09:33:31.874Z,21.57
2022-08-22T09:36:05.201Z,21.77
2022-08-22T09:38:47.687Z,21.55
2022-08-22T09:41:27.915Z,21.46
2022-08-22T09:44:12.191Z,21.60
2022-08-22T09:46:54.858Z,21.59
2022-08-22T09:49:36.866Z,21.30
2022-08-22T09:52:15.121Z,21.35
2022-08-22T09:54:48.516Z,21.75
2022-08-22T09:57:26.758Z,21.78
2022-08-22T10:00:15.690Z,21.37
2022-08-22T10:02:56.808Z,21.20
2022-08-22T10:05:41.230Z,21.60
2022-08-22T10:08:20.293Z,21.75
2022-08-22T10:11:06.564Z,21.54
2022-08-22T10:13:46.340Z,21.35
2022-08-22T10:16:53.776Z,21.62
2022-08-22T10:19:29.581Z,21.73
2022-08-22T10:22:32.001Z,21.72
2022-08-22T10:25:14.559Z,21.70
2022-08-22T10:27:54.038Z,21.50
2022-08-22T10:30:27.654Z,21.31
2022-08-22T10:33:03.392Z,21.33
2022-08-22T10:35:38.959Z,21.62
2022-08-22T10:38:14.926Z,21.82
2022-08-22T10:40:52.037Z,21.89
2022-08-22T10:43:28.639Z,21.91
2022-08-22T10:46:04.010Z,21.57
2022-08-22T10:48:49.176Z,22.04
2022-08-22T10:51:25.425Z,21.86
2022-08-22T10:54:10.355Z,22.09
2022-08-22T10:56:43.815Z,21.82
2022-08-22T10:59:27.464Z,22.07
2022-08-22T11:02:09.763Z,21.51
2022-08-22T11:04:59.106Z,21.79
2022-08-22T11:07:48.536Z,21.73
2022-08-22T11:10:28.746Z,21.56
2022-08-22T11:13:11.837Z,21.62
2022-08-22T11:15:55.929Z,21.75
2022-08-22T11:18:36.253Z,21.65
2022-08-22T11:21:10.917Z,21.95
2022-08-22T11:23:46.134Z,22.18
2022-08-22T11:26:33.444Z,21.79
2022-08-22T11:29:24.866Z,21.81
2022-08-22T11:32:05.927Z,22.04
2022-08-22T11:34:47.601Z,21.93
2022-08-22T11:37:42.566Z,22.08
2022-08-22T11:40:31.654Z,22.13
2022-08-22T11:43:18.447Z,22.12
2022-08-22T11:45:49.650Z,22.03
2022-08-22T11:48:24.730Z,22.47
2022-08-22T11:50:59.803Z,22.61
2022-08-22T11:53:35.802Z,22.61
2022-08-22T11:56:20.590Z,22.64
2022-08-22T11:58:59.559Z,22.45
2022-08-22T12:01:39.598Z,22.48
2022-08-22T12:04:15.774Z,22.70
2022-08-22T12:07:03.111Z,22.89
2022-08-22T12:09:42.076Z,22.78
2022-08-22T12:12:20.966Z,23.10
2022-08-22T12:15:00.062Z,22.31
2022-08-22T12:18:21.207Z,22.68
2022-08-22T12:21:13.355Z,22.90
2022-08-22T12:24:05.930Z,22.64
2022-08-22T12:26:47.256Z,22.84
2022-08-22T12:29:33.921Z,22.72
2022-08-22T12:32:58.634Z,22.98
2022-08-22T12:35:41.952Z,22.75
2022-08-22T12:38:28.887Z,22.62
2022-08-22T12:41:13.628Z,22.33
2022-08-22T12:44:04.501Z,22.38
2022-08-22T12:46:48.349Z,22.27
2022-08-22T12:49:38.580Z,22.24
2022-08-22T12:52:25.031Z,22.49
2022-08-22T12:55:14.922Z,22.34
2022-08-22T12:57:54.072Z,22.20
2022-08-22T13:00:34.624Z,22.07
2022-08-22T13:03:08.323Z,22.13
2022-08-22T13:05:41.720Z,21.98
2022-08-22T13:08:17.601Z,22.17
2022-08-22T13:10:48.769Z,22.06
2022-08-22T13:13:31.634Z,22.20
2022-08-22T13:16:08.667Z,22.27
2022-08-22T13:18:53.527Z,22.16
2022-08-22T13:21:32.103Z,22.54
2022-08-22T13:24:10.561Z,22.47
2022-08-22T13:26:49.154Z,22.32
2022-08-22T13:29:26.150Z,22.41
2022-08-22T13:32:00.279Z,22.48
2022-08-22T13:34:39.901Z,22.50
2022-08-22T13:37:16.682Z,22.33
2022-08-22T13:39:49.198Z,22.48
2022-08-22T13:42:30.181Z,22.45
2022-08-22T13:45:04.882Z,22.41
2022-08-22T13:47:47.108Z,22.39
2022-08-22T13:50:20.955Z,22.43
2022-08-22T13:52:56.183Z,22.18
2022-08-22T13:55:32.744Z,22.20
2022-08-22T13:58:06.938Z,22.07
2022-08-22T14:01:10.401Z,22.40
2022-08-22T14:03:48.804Z,22.16
2022-08-22T14:06:41.473Z,22.15
2022-08-22T14:09:31.951Z,22.18
2022-08-22T14:12:12.271Z,22.18
2022-08-22T14:14:46.012Z,22.27
2022-08-22T14:17:21.127Z,22.21
2022-08-22T14:19:59.749Z,22.47
2022-08-22T14:22:35.093Z,22.54
2022-08-22T14:25:10.126Z,22.51
2022-08-22T14:27:45.757Z,22.32
2022-08-22T14:30:18.907Z,22.27
2022-08-22T14:32:52.136Z,22.22
2022-08-22T14:35:34.699Z,22.19
2022-08-22T14:38:17.856Z,21.98
2022-08-22T14:40:53.737Z,22.00
2022-08-22T14:43:40.675Z,21.99
2022-08-22T14:46:14.280Z,21.81
2022-08-22T14:48:50.442Z,21.76
2022-08-22T14:51:22.390Z,21.49
2022-08-22T14:53:51.634Z,21.69
2022-08-22T14:56:24.758Z,21.50
2022-08-22T14:58:56.873Z,21.39
2022-08-22T15:01:29.795Z,21.64
2022-08-22T15:04:03.782Z,21.33
2022-08-22T15:06:37.255Z,21.27
2022-08-22T15:09:08.331Z,21.41
2022-08-22T15:11:42.174Z,21.11
2022-08-22T15:14:21.867Z,21.17
2022-08-22T15:16:54.546Z,21.16
2022-08-22T15:19:27.550Z,21.03
2022-08-22T15:22:13.618Z,20.78
2022-08-22T15:24:45.959Z,20.89
2022-08-22T15:27:18.611Z,20.92
2022-08-22T15:29:51.398Z,20.77
2022-08-22T15:32:22.866Z,20.78
2022-08-22T15:35:03.329Z,20.74
2022-08-22T15:37:34.951Z,20.71
2022-08-22T15:40:12.728Z,20.79
2022-08-22T15:42:46.246Z,20.83
2022-08-22T15:45:33.721Z,20.66
2022-08-22T15:48:05.917Z,20.83
2022-08-22T15:50:39.701Z,20.69
2022-08-22T15:53:18.674Z,20.58
2022-08-22T15:56:20.542Z,20.55
2022-08-22T15:58:55.610Z,20.64
2022-08-22T16:01:26.338Z,20.50
2022-08-22T16:03:59.542Z,20.54
2022-08-22T16:06:42.783Z,20.41
2022-08-22T16:09:33.590Z,20.39
2022-08-22T16:12:05.150Z,20.37
2022-08-22T16:14:52.446Z,20.36
2022-08-22T16:17:45.919Z,20.17
2022-08-22T16:20:50.774Z,20.21
2022-08-22T16:23:18.968Z,20.13
2022-08-22T16:26:12.125Z,20.02
2022-08-22T16:29:04.725Z,20.20
2022-08-22T16:31:38.746Z,20.35
2022-08-22T16:34:26.410Z,20.18
2022-08-22T16:37:32.076Z,20.17
2022-08-22T16:40:14.682Z,19.99
2022-08-22T16:42:46.390Z,20.03
2022-08-22T16:45:21.965Z,19.78
2022-08-22T16:47:58.010Z,19.80
2022-08-22T16:50:38.220Z,19.75
2022-08-22T16:53:10.500Z,19.79
2022-08-22T16:55:49.206Z,19.86
2022-08-22T16:58:40.261Z,19.83
2022-08-22T17:01:22.048Z,19.76
2022-08-22T17:04:02.426Z,19.80
2022-08-22T17:06:48.471Z,19.54
2022-08-22T17:09:42.741Z,19.51
2022-08-22T17:12:25.236Z,19.67
2022-08-22T17:15:04.527Z,19.68
2022-08-22T17:17:41.451Z,19.60
2022-08-22T17:20:26.538Z,19.40
2022-08-22T17:23:01.637Z,19.32
2022-08-22T17:25:35.310Z,19.37
2022-08-22T17:28:18.169Z,19.14
2022-08-22T17:30:58.628Z,19.15
2022-08-22T17:34:00.134Z,19.06
2022-08-22T17:36:42.621Z,19.11
2022-08-22T17:39:25.533Z,19.05
2022-08-22T17:42:03.850Z,18.97
2022-08-22T17:44:40.414Z,19.12
2022-08-22T17:47:16.089Z,18.97
2022-08-22T17:49:55.804Z,18.76
2022-08-22T17:52:35.863Z,18.67
2022-08-22T17:55:14.918Z,18.79
2022-08-22T17:57:50.093Z,18.84
2022-08-22T18:00:24.121Z,18.72
2022-08-22T18:02:57.563Z,18.91
2022-08-22T18:05:31.001Z,18.95
2022-08-22T18:08:08.758Z,19.01
2022-08-22T18:10:46.482Z,19.01
2022-08-22T18:13:21.991Z,19.06
2022-08-22T18:16:00.779Z,19.04
2022-08-22T18:18:35.157Z,18.92
2022-08-22T18:21:10.933Z,18.83
2022-08-22T18:23:45.251Z,18.74
2022-08-22T18:26:24.365Z,18.79
2022-08-22T18:29:00.738Z,18.70
2022-08-22T18:31:47.520Z,18.57
2022-08-22T18:34:27.949Z,18.45
2022-08-22T18:37:01.957Z,18.49
2022-08-22T18:39:42.078Z,18.55
2022-08-22T18:42:22.109Z,18.41
2022-08-22T18:44:50.585Z,18.43
2022-08-22T18:47:24.848Z,18.45
2022-08-22T18:49:55.007Z,18.43
2022-08-22T18:52:36.150Z,18.23
2022-08-22T18:55:32.357Z,18.39
2022-08-22T18:58:26.839Z,18.28
2022-08-22T19:01:19.395Z,18.44
2022-08-22T19:04:13.184Z,18.30
2022-08-22T19:06:58.450Z,18.32
2022-08-22T19:09:50.033Z,18.22
2022-08-22T19:12:42.981Z,18.24
2022-08-22T19:15:25.057Z,18.00
2022-08-22T19:18:34.440Z,18.20
2022-08-22T19:21:35.839Z,18.19
2022-08-22T19:24:09.306Z,18.01
2022-08-22T19:26:40.984Z,18.07
2022-08-22T19:29:42.419Z,18.09
2022-08-22T19:32:33.629Z,18.04
2022-08-22T19:35:19.537Z,17.97
2022-08-22T19:37:55.813Z,17.91
2022-08-22T19:40:54.195Z,18.09
2022-08-22T19:43:32.568Z,17.76
2022-08-22T19:46:04.746Z,17.88
2022-08-22T19:48:44.515Z,17.93
2022-08-22T19:51:25.379Z,18.03
2022-08-22T19:54:15.794Z,17.98
2022-08-22T19:57:02.679Z,18.08
2022-08-22T19:59:50.991Z,17.88
2022-08-22T20:02:31.939Z,17.77
2022-08-22T20:05:18.600Z,17.87
2022-08-22T20:08:00.567Z,17.77
2022-08-22T20:10:39.061Z,17.73
2022-08-22T20:13:11.799Z,17.65
2022-08-22T20:16:02.473Z,17.73
2022-08-22T20:19:00.203Z,17.68
2022-08-22T20:21:58.013Z,17.74
2022-08-22T20:24:36.502Z,17.73
2022-08-22T20:27:15.141Z,17.41
2022-08-22T20:29:49.750Z,17.56
2022-08-22T20:32:21.414Z,17.28
2022-08-22T20:34:54.554Z,17.42
2022-08-22T20:37:45.335Z,17.37
2022-08-22T20:40:55.095Z,17.31
2022-08-22T20:43:18.535Z,17.24
2022-08-22T20:45:59.475Z,17.21
2022-08-22T20:48:36.809Z,17.22
2022-08-22T20:51:06.855Z,17.18
2022-08-22T20:53:37.248Z,17.20
2022-08-22T20:56:08.077Z,17.20
2022-08-22T20:58:40.401Z,17.22
2022-08-22T21:01:12.079Z,17.23
2022-08-22T21:03:43.601Z,17.28
2022-08-22T21:06:14.723Z,17.23
2022-08-22T21:08:46.534Z,17.20
2022-08-22T21:11:42.207Z,17.21
2022-08-22T21:14:21.538Z,17.44
2022-08-22T21:16:50.087Z,17.33
2022-08-22T21:19:20.763Z,17.18
2022-08-22T21:21:48.956Z,17.30
2022-08-22T21:24:18.591Z,17.24
2022-08-22T21:26:50.802Z,17.31
2022-08-22T21:29:27.026Z,17.30
2022-08-22T21:32:11.929Z,17.54
2022-08-22T21:34:45.239Z,17.30
2022-08-22T21:37:16.507Z,17.40
2022-08-22T21:39:49.082Z,17.40
2022-08-22T21:42:25.080Z,17.41
2022-08-22T21:44:58.359Z,17.46
2022-08-22T21:47:31.688Z,17.52
2022-08-22T21:50:28.255Z,17.45
2022-08-22T21:53:11.831Z,17.24
2022-08-22T21:55:46.660Z,17.24
2022-08-22T21:58:35.806Z,17.24
2022-08-22T22:01:28.299Z,17.20
2022-08-22T22:03:57.524Z,17.28
2022-08-22T22:06:26.184Z,17.25
2022-08-22T22:08:54.490Z,17.43
2022-08-22T22:11:24.007Z,17.51
2022-08-22T22:13:52.404Z,17.45
2022-08-22T22:16:25.834Z,17.59
2022-08-22T22:18:54.598Z,17.66
2022-08-22T22:21:22.971Z,17.59
2022-08-22T22:23:51.501Z,17.55
2022-08-22T22:26:20.955Z,17.43
2022-08-22T22:28:51.183Z,17.36
2022-08-22T22:31:19.562Z,17.19
2022-08-22T22:33:47.761Z,17.16
2022-08-22T22:36:19.768Z,17.39
2022-08-22T22:38:48.730Z,17.10
2022-08-22T22:41:21.212Z,17.22
2022-08-22T22:43:50.712Z,17.27
2022-08-22T22:46:18.930Z,17.33
2022-08-22T22:48:47.089Z,17.18
2022-08-22T22:51:16.035Z,17.21
2022-08-22T22:53:44.851Z,17.23
2022-08-22T22:56:15.915Z,17.14
2022-08-22T22:58:44.530Z,17.08
2022-08-22T23:01:17.299Z,17.10
2022-08-22T23:03:46.674Z,17.12
2022-08-22T23:06:18.455Z,17.19
2022-08-22T23:08:47.233Z,17.22
2022-08-22T23:11:18.446Z,17.19
2022-08-22T23:13:48.169Z,17.19
2022-08-22T23:16:21.883Z,17.06
2022-08-22T23:18:50.339Z,17.14
2022-08-22T23:21:20.613Z,17.11
2022-08-22T23:23:49.707Z,17.22
2022-08-22T23:26:18.597Z,17.20
2022-08-22T23:28:47.194Z,17.22
2022-08-22T23:31:18.560Z,17.26
2022-08-22T23:33:47.446Z,17.11
2022-08-22T23:36:18.711Z,16.89
2022-08-22T23:38:47.356Z,16.91
2022-08-22T23:41:17.842Z,16.85
2022-08-22T23:43:49.639Z,16.82
2022-08-22T23:46:22.282Z,16.83
2022-08-22T23:48:50.682Z,16.75
2022-08-22T23:51:23.212Z,16.82
2022-08-22T23:53:52.012Z,16.81
2022-08-22T23:56:22.903Z,16.81
2022-08-22T23:58:53.344Z,16.72
